| time (UTC) | temp F | wind direction | speed knots | gust knots | rain 1hr in | rain 24hr in | rain mn in | humidity % | barometer mb |
| 20260507090006 | 56 | 327 | 1.7 | 4.3 | 0.00 | 0.53 | 0.01 | 87 | 1014.4 |
| 20260507084504 | 56 | 281 | 0.9 | 4.3 | 0.00 | 0.53 | 0.01 | 88 | 1014.3 |
| 20260507083003 | 55 | 5 | 0.9 | 5.2 | 0.00 | 0.53 | 0.01 | 90 | 1014.2 |
| 20260507081604 | 54 | 328 | 1.7 | 6.1 | 0.00 | 0.53 | 0.01 | 90 | 1014.3 |
| 20260507080056 | 54 | 301 | 2.6 | 4.3 | 0.00 | 0.53 | 0.01 | 91 | 1014.2 |
| 20260507074606 | 53 | 344 | 2.6 | 4.3 | 0.00 | 0.68 | 0.01 | 92 | 1014.1 |
| 20260507073059 | 53 | 317 | 0.9 | 4.3 | 0.00 | 0.68 | 0.01 | 93 | 1014.1 |
| 20260507071549 | 52 | 306 | 1.7 | 3.5 | 0.00 | 0.68 | 0.01 | 94 | 1014.1 |
| 20260507070047 | 52 | 346 | 0.9 | 3.5 | 0.00 | 0.68 | 0.01 | 95 | 1014.0 |
| 20260507064544 | 51 | 273 | 0.0 | 0.9 | 0.00 | 0.87 | 0.01 | 95 | 1013.9 |
| 20260507063047 | 51 | 347 | 0.0 | 0.0 | 0.00 | 0.87 | 0.01 | 96 | 1013.8 |
| 20260507061539 | 50 | 347 | 0.0 | 0.0 | 0.00 | 0.87 | 0.01 | 97 | 1013.6 |
| 20260507060036 | 50 | 347 | 0.0 | 0.0 | 0.00 | 0.87 | 0.01 | 97 | 1013.6 |
| 20260507054539 | 49 | 347 | 0.0 | 0.0 | 0.00 | 1.05 | 0.01 | 97 | 1013.6 |
| 20260507053029 | 49 | 347 | 0.0 | 0.0 | 0.00 | 1.05 | 0.01 | 97 | 1013.6 |
| 20260507051526 | 48 | 295 | 0.0 | 0.0 | 0.00 | 1.05 | 0.01 | 97 | 1013.5 |
| 20260507050032 | 48 | 138 | 0.0 | 0.0 | 0.00 | 1.05 | 0.01 | 96 | 1013.4 |
| 20260507044523 | 48 | 138 | 0.0 | 0.0 | 0.00 | 1.19 | 0.01 | 96 | 1013.2 |
| 20260507043016 | 48 | 138 | 0.0 | 0.0 | 0.00 | 1.19 | 0.01 | 96 | 1013.1 |
| 20260507041527 | 48 | 138 | 0.0 | 0.0 | 0.00 | 1.19 | 0.01 | 96 | 1013.1 |
| 20260507040014 | 48 | 138 | 0.0 | 0.0 | 0.00 | 1.19 | 0.01 | 96 | 1013.0 |
| 20260507034517 | 48 | 138 | 0.0 | 0.0 | 0.00 | 1.23 | 0.01 | 96 | 1013.0 |
| 20260507033013 | 48 | 138 | 0.9 | 2.6 | 0.00 | 1.23 | 0.01 | 96 | 1012.9 |
| 20260507031521 | 48 | 167 | 0.0 | 0.0 | 0.00 | 1.23 | 0.01 | 96 | 1013.1 |
| 20260507030013 | 48 | 167 | 0.0 | 0.0 | 0.00 | 1.23 | 0.01 | 96 | 1013.0 |
| 20260507024513 | 48 | 167 | 0.0 | 0.0 | 0.00 | 1.23 | 0.01 | 96 | 1013.0 |
| 20260507023009 | 48 | 167 | 0.0 | 0.0 | 0.00 | 1.23 | 0.01 | 96 | 1013.0 |
| 20260507021508 | 48 | 167 | 0.0 | 0.0 | 0.00 | 1.23 | 0.01 | 96 | 1012.8 |
| 20260507020008 | 48 | 167 | 0.0 | 0.0 | 0.00 | 1.23 | 0.01 | 96 | 1012.7 |
| 20260507014515 | 48 | 167 | 0.0 | 0.0 | 0.01 | 1.23 | 0.01 | 96 | 1012.7 |
| 20260507013005 | 48 | 167 | 0.0 | 0.0 | 0.01 | 1.23 | 0.01 | 96 | 1012.7 |
| 20260507011506 | 48 | 167 | 0.0 | 0.0 | 0.01 | 1.23 | 0.01 | 95 | 1012.6 |
| 20260507010003 | 49 | 167 | 0.0 | 0.0 | 0.01 | 1.24 | 0.01 | 96 | 1012.6 |
| 20260507004505 | 49 | 167 | 0.0 | 0.0 | 0.00 | 1.23 | 0.00 | 96 | 1012.6 |
| 20260507003001 | 49 | 167 | 0.0 | 1.7 | 0.00 | 1.23 | 0.00 | 96 | 1012.6 |
| 20260507001602 | 49 | 167 | 0.9 | 2.6 | 0.00 | 1.23 | 0.00 | 96 | 1012.5 |
| 20260507000058 | 49 | 192 | 0.0 | 1.7 | 0.00 | 1.23 | 0.00 | 96 | 1012.4 |
| 20260506234602 | 49 | 214 | 0.0 | 0.0 | 0.00 | 1.23 | 0.00 | 96 | 1012.4 |
| 20260506233059 | 49 | 214 | 0.0 | 0.9 | 0.00 | 1.23 | 0.00 | 96 | 1012.4 |
| 20260506231559 | 49 | 215 | 0.0 | 0.9 | 0.00 | 1.23 | 0.00 | 96 | 1012.4 |
| 20260506230057 | 49 | 214 | 0.0 | 1.7 | 0.00 | 1.23 | 0.00 | 96 | 1012.3 |
| 20260506224551 | 49 | 213 | 0.9 | 2.6 | 0.00 | 1.23 | 0.00 | 95 | 1012.1 |
| 20260506223055 | 49 | 259 | 0.0 | 0.9 | 0.00 | 1.23 | 0.00 | 95 | 1012.0 |
| 20260506221548 | 49 | 259 | 0.0 | 0.9 | 0.00 | 1.23 | 0.00 | 95 | 1011.9 |
| 20260506220047 | 49 | 259 | 0.0 | 1.7 | 0.00 | 1.23 | 0.00 | 95 | 1011.8 |
| 20260506214545 | 49 | 259 | 0.0 | 1.7 | 0.01 | 1.28 | 1.23 | 95 | 1011.9 |
| 20260506213102 | 49 | 298 | 0.0 | 0.0 | 0.01 | 1.28 | 1.23 | 95 | 1011.8 |
| 20260506211602 | 49 | 299 | 0.0 | 2.6 | 0.01 | 1.28 | 1.23 | 95 | 1011.9 |
| 20260506210043 | 49 | 126 | 0.0 | 0.9 | 0.01 | 1.28 | 1.23 | 94 | 1011.8 |
| 20260506204546 | 49 | 126 | 0.0 | 2.6 | 0.00 | 1.27 | 1.22 | 95 | 1011.7 |
| 20260506203041 | 49 | 125 | 1.7 | 3.5 | 0.00 | 1.27 | 1.22 | 95 | 1011.5 |
| 20260506201550 | 49 | 99 | 1.7 | 2.6 | 0.00 | 1.27 | 1.22 | 94 | 1011.5 |
| 20260506200034 | 49 | 61 | 0.9 | 2.6 | 0.00 | 1.27 | 1.22 | 94 | 1011.4 |
| 20260506194533 | 50 | 94 | 0.9 | 2.6 | 0.05 | 1.28 | 1.22 | 94 | 1011.4 |
| 20260506193031 | 50 | 49 | 0.9 | 2.6 | 0.13 | 1.28 | 1.22 | 94 | 1011.4 |
| 20260506191556 | 50 | 118 | 0.9 | 4.3 | 0.17 | 1.28 | 1.22 | 94 | 1011.2 |
| 20260506190055 | 50 | 224 | 1.7 | 5.2 | 0.18 | 1.28 | 1.22 | 94 | 1011.0 |
| 20260506184606 | 50 | 147 | 1.7 | 6.1 | 0.13 | 1.27 | 1.17 | 93 | 1010.9 |
| 20260506183057 | 50 | 238 | 2.6 | 6.1 | 0.06 | 1.18 | 1.09 | 92 | 1011.0 |
| 20260506181543 | 50 | 39 | 2.6 | 5.2 | 0.02 | 1.13 | 1.05 | 91 | 1010.7 |
| 20260506180047 | 51 | 22 | 2.6 | 6.1 | 0.01 | 1.12 | 1.04 | 90 | 1010.4 |
| 20260506174542 | 52 | 15 | 4.3 | 7.0 | 0.01 | 1.15 | 1.04 | 88 | 1010.2 |
| 20260506173048 | 53 | 351 | 7.8 | 12.2 | 0.00 | 1.14 | 1.03 | 84 | 1010.0 |
| 20260506171540 | 56 | 307 | 3.5 | 7.0 | 0.00 | 1.14 | 1.03 | 79 | 1009.7 |
| 20260506170055 | 58 | 348 | 1.7 | 4.3 | 0.00 | 1.14 | 1.03 | 76 | 1009.5 |
| 20260506164538 | 59 | 217 | 0.0 | 2.6 | 0.00 | 1.14 | 1.03 | 74 | 1009.3 |
| 20260506163039 | 59 | 182 | 2.6 | 5.2 | 0.00 | 1.14 | 1.03 | 72 | 1009.1 |
| 20260506161540 | 60 | 216 | 1.7 | 3.5 | 0.00 | 1.14 | 1.03 | 71 | 1009.2 |
| 20260506160040 | 61 | 171 | 2.6 | 6.1 | 0.00 | 1.14 | 1.03 | 69 | 1009.2 |
| 20260506154534 | 60 | 169 | 3.5 | 7.8 | 0.00 | 1.14 | 1.03 | 70 | 1009.1 |
| 20260506153029 | 59 | 153 | 1.7 | 6.1 | 0.00 | 1.14 | 1.03 | 74 | 1009.1 |
| 20260506151529 | 59 | 115 | 3.5 | 7.0 | 0.00 | 1.14 | 1.03 | 78 | 1009.2 |
| 20260506150027 | 59 | 151 | 4.3 | 8.7 | 0.00 | 1.14 | 1.03 | 76 | 1009.3 |
| 20260506144524 | 58 | 191 | 3.5 | 7.8 | 0.00 | 1.15 | 1.03 | 79 | 1009.3 |
| 20260506143030 | 58 | 144 | 5.2 | 9.6 | 0.00 | 1.15 | 1.03 | 81 | 1009.3 |
| 20260506141520 | 57 | 161 | 4.3 | 7.8 | 0.00 | 1.15 | 1.03 | 84 | 1009.6 |
| 20260506140017 | 56 | 160 | 2.6 | 7.8 | 0.00 | 1.15 | 1.03 | 87 | 1009.7 |
| 20260506134513 | 54 | 155 | 3.5 | 8.7 | 0.00 | 1.27 | 1.03 | 89 | 1009.8 |
| 20260506133012 | 54 | 144 | 4.3 | 10.4 | 0.00 | 1.27 | 1.03 | 89 | 1009.9 |
| 20260506131512 | 54 | 130 | 5.2 | 10.4 | 0.00 | 1.27 | 1.03 | 89 | 1010.0 |
| 20260506130014 | 54 | 197 | 4.3 | 10.4 | 0.00 | 1.27 | 1.03 | 91 | 1010.0 |
| 20260506124510 | 54 | 169 | 5.2 | 10.4 | 0.00 | 1.27 | 1.03 | 90 | 1009.9 |
| 20260506123010 | 55 | 146 | 5.2 | 8.7 | 0.00 | 1.27 | 1.03 | 91 | 1009.8 |
| 20260506121510 | 55 | 149 | 2.6 | 7.8 | 0.01 | 1.27 | 1.03 | 91 | 1009.9 |
| 20260506120008 | 55 | 199 | 4.3 | 8.7 | 0.01 | 1.27 | 1.03 | 92 | 1010.0 |
| 20260506114506 | 54 | 196 | 4.3 | 8.7 | 0.01 | 1.27 | 1.03 | 94 | 1010.0 |
| 20260506113007 | 52 | 180 | 4.3 | 9.6 | 0.01 | 1.26 | 1.02 | 95 | 1010.1 |
| 20260506111503 | 51 | 178 | 4.3 | 10.4 | 0.02 | 1.26 | 1.02 | 95 | 1010.2 |
| 20260506110002 | 52 | 159 | 4.3 | 11.3 | 0.05 | 1.26 | 1.02 | 96 | 1010.2 |
| 20260506104601 | 51 | 144 | 3.5 | 6.1 | 0.07 | 1.26 | 1.02 | 96 | 1010.2 |
| 20260506103105 | 50 | 162 | 2.6 | 7.8 | 0.09 | 1.25 | 1.02 | 96 | 1010.2 |
| 20260506101553 | 50 | 184 | 3.5 | 8.7 | 0.13 | 1.24 | 1.01 | 96 | 1010.1 |
| 20260506100051 | 50 | 146 | 2.6 | 6.1 | 0.13 | 1.21 | 0.98 | 95 | 1010.0 |
| 20260506094550 | 50 | 176 | 3.5 | 7.8 | 0.14 | 1.19 | 0.95 | 95 | 1009.9 |
| 20260506093047 | 50 | 167 | 4.3 | 7.0 | 0.14 | 1.15 | 0.92 | 96 | 1009.8 |
| 20260506091547 | 50 | 180 | 3.5 | 7.8 | 0.13 | 1.11 | 0.87 | 95 | 1009.6 |